createdAt,value
2018-03-04T00:00:03.832Z,99.90
2018-03-04T00:02:31.995Z,99.90
2018-03-04T00:05:00.137Z,99.90
2018-03-04T00:07:28.293Z,99.90
2018-03-04T00:09:56.454Z,99.90
2018-03-04T00:12:24.609Z,99.90
2018-03-04T00:14:52.785Z,99.70
2018-03-04T00:17:20.942Z,99.50
2018-03-04T00:19:49.122Z,99.50
2018-03-04T00:22:17.296Z,99.60
2018-03-04T00:24:45.433Z,99.60
2018-03-04T00:27:14.353Z,99.90
2018-03-04T00:29:42.494Z,99.90
2018-03-04T00:32:11.416Z,99.90
2018-03-04T00:34:39.565Z,99.90
2018-03-04T00:37:08.494Z,99.90
2018-03-04T00:39:36.631Z,99.90
2018-03-04T00:42:05.554Z,99.90
2018-03-04T00:44:33.688Z,99.90
2018-03-04T00:47:02.614Z,99.90
2018-03-04T00:49:30.745Z,99.90
2018-03-04T00:51:58.920Z,99.90
2018-03-04T00:54:27.055Z,99.60
2018-03-04T00:56:55.230Z,99.70
2018-03-04T00:59:23.366Z,99.80
2018-03-04T01:01:51.501Z,99.90
2018-03-04T01:04:19.665Z,99.90
2018-03-04T01:06:48.660Z,99.90
2018-03-04T01:09:16.835Z,99.90
2018-03-04T01:11:44.976Z,99.90
2018-03-04T01:14:13.148Z,99.90
2018-03-04T01:16:41.281Z,99.90
2018-03-04T01:19:09.487Z,99.90
2018-03-04T01:21:37.641Z,99.90
2018-03-04T01:24:05.831Z,99.90
2018-03-04T01:26:34.491Z,99.90
2018-03-04T01:29:02.654Z,99.90
2018-03-04T01:31:30.814Z,99.90
2018-03-04T01:33:59.003Z,99.90
2018-03-04T01:36:27.143Z,99.90
2018-03-04T01:38:55.328Z,99.90
2018-03-04T01:41:23.477Z,99.90
2018-03-04T01:43:51.637Z,99.90
2018-03-04T01:46:19.774Z,99.90
2018-03-04T01:48:47.933Z,99.90
2018-03-04T01:51:16.115Z,99.90
2018-03-04T01:53:44.267Z,99.90
2018-03-04T01:56:12.401Z,99.90
2018-03-04T01:58:40.562Z,99.90
2018-03-04T02:01:08.697Z,99.90
2018-03-04T02:03:36.852Z,99.90
2018-03-04T02:06:04.984Z,99.90
2018-03-04T02:08:33.156Z,99.90
2018-03-04T02:11:01.294Z,99.90
2018-03-04T02:13:29.464Z,99.90
2018-03-04T02:15:57.597Z,99.90
2018-03-04T02:18:25.728Z,99.90
2018-03-04T02:20:53.888Z,99.90
2018-03-04T02:23:22.025Z,99.90
2018-03-04T02:25:50.190Z,99.90
2018-03-04T02:28:18.334Z,99.90
2018-03-04T02:30:46.495Z,99.90
2018-03-04T02:33:14.636Z,99.90
2018-03-04T02:35:42.790Z,99.90
2018-03-04T02:38:10.925Z,99.90
2018-03-04T02:40:39.092Z,99.90
2018-03-04T02:43:07.231Z,99.90
2018-03-04T02:45:35.389Z,99.90
2018-03-04T02:48:03.529Z,99.90
2018-03-04T02:50:31.706Z,99.70
2018-03-04T02:52:59.842Z,99.30
2018-03-04T02:55:28.014Z,99.30
2018-03-04T02:57:56.152Z,99.20
2018-03-04T03:00:24.311Z,99.00
2018-03-04T03:02:52.455Z,99.00
2018-03-04T03:05:21.377Z,99.20
2018-03-04T03:07:49.513Z,99.10
2018-03-04T03:10:18.439Z,99.70
2018-03-04T03:12:46.568Z,99.70
2018-03-04T03:15:14.716Z,99.90
2018-03-04T03:17:42.873Z,99.90
2018-03-04T03:20:11.013Z,99.70
2018-03-04T03:22:39.166Z,99.30
2018-03-04T03:25:07.302Z,99.00
2018-03-04T03:27:35.457Z,99.30
2018-03-04T03:30:03.595Z,98.80
2018-03-04T03:32:31.749Z,99.10
2018-03-04T03:34:59.880Z,99.20
2018-03-04T03:37:28.046Z,99.20
2018-03-04T03:39:56.180Z,99.40
2018-03-04T03:42:24.345Z,99.40
2018-03-04T03:44:52.481Z,99.50
2018-03-04T03:47:20.646Z,99.50
2018-03-04T03:49:48.792Z,99.40
2018-03-04T03:52:16.965Z,99.40
2018-03-04T03:54:45.868Z,99.80
2018-03-04T03:57:14.034Z,99.80
2018-03-04T03:59:42.177Z,99.50
2018-03-04T04:02:10.346Z,99.40
2018-03-04T04:04:38.486Z,99.60
2018-03-04T04:07:06.649Z,99.80
2018-03-04T04:09:34.786Z,99.90
2018-03-04T04:12:02.962Z,99.90
2018-03-04T04:14:31.104Z,99.90
2018-03-04T04:16:59.282Z,99.90
2018-03-04T04:19:27.417Z,99.90
2018-03-04T04:21:55.553Z,99.90
2018-03-04T04:24:23.715Z,99.90
2018-03-04T04:26:51.849Z,99.90
2018-03-04T04:29:20.013Z,99.90
2018-03-04T04:31:48.174Z,99.90
2018-03-04T04:34:16.334Z,99.90
2018-03-04T04:36:45.230Z,99.90
2018-03-04T04:39:13.388Z,99.90
2018-03-04T04:41:42.290Z,99.90
2018-03-04T04:44:10.445Z,99.90
2018-03-04T04:46:39.352Z,99.90
2018-03-04T04:49:07.519Z,99.90
2018-03-04T04:51:36.423Z,99.90
2018-03-04T04:54:04.577Z,99.90
2018-03-04T04:56:33.480Z,99.90
2018-03-04T04:59:01.634Z,99.90
2018-03-04T05:01:29.764Z,99.90
2018-03-04T05:03:57.923Z,99.70
2018-03-04T05:06:26.058Z,99.60
2018-03-04T05:08:54.222Z,99.90
2018-03-04T05:11:22.357Z,99.90
2018-03-04T05:13:50.517Z,99.90
2018-03-04T05:16:18.659Z,99.90
2018-03-04T05:18:46.817Z,99.90
2018-03-04T05:21:14.953Z,99.90
2018-03-04T05:23:43.123Z,99.40
2018-03-04T05:26:11.258Z,99.50
2018-03-04T05:28:39.416Z,99.40
2018-03-04T05:31:08.323Z,99.20
2018-03-04T05:33:36.473Z,99.20
2018-03-04T05:36:04.630Z,99.10
2018-03-04T05:38:32.821Z,99.00
2018-03-04T05:41:00.958Z,99.00
2018-03-04T05:43:29.088Z,98.90
2018-03-04T05:45:58.015Z,98.60
2018-03-04T05:48:26.165Z,98.60
2018-03-04T05:50:54.331Z,98.60
2018-03-04T05:53:23.243Z,98.10
2018-03-04T05:55:51.410Z,98.10
2018-03-04T05:58:19.543Z,98.10
2018-03-04T06:00:47.699Z,98.30
2018-03-04T06:03:15.838Z,98.30
2018-03-04T06:05:43.996Z,98.40
2018-03-04T06:08:12.154Z,98.40
2018-03-04T06:10:40.315Z,98.50
2018-03-04T06:13:08.454Z,98.40
2018-03-04T06:15:36.612Z,98.30
2018-03-04T06:18:04.746Z,98.40
2018-03-04T06:20:32.912Z,98.40
2018-03-04T06:23:01.815Z,98.40
2018-03-04T06:25:30.023Z,98.40
2018-03-04T06:27:58.153Z,98.50
2018-03-04T06:30:26.325Z,98.40
2018-03-04T06:32:54.465Z,98.40
2018-03-04T06:35:22.625Z,98.30
2018-03-04T06:37:50.762Z,98.30
2018-03-04T06:40:18.936Z,98.20
2018-03-04T06:42:47.077Z,98.10
2018-03-04T06:45:15.214Z,98.10
2018-03-04T06:47:43.368Z,98.00
2018-03-04T06:50:11.506Z,97.90
2018-03-04T06:52:39.664Z,97.90
2018-03-04T06:55:07.798Z,97.90
2018-03-04T06:57:35.959Z,97.80
2018-03-04T07:00:04.098Z,97.70
2018-03-04T07:02:32.259Z,97.50
2018-03-04T07:05:00.393Z,97.70
2018-03-04T07:07:28.566Z,97.70
2018-03-04T07:09:56.702Z,97.60
2018-03-04T07:12:24.857Z,97.50
2018-03-04T07:14:52.997Z,97.20
2018-03-04T07:17:21.152Z,97.40
2018-03-04T07:19:49.286Z,96.70
2018-03-04T07:22:17.456Z,96.90
2018-03-04T07:24:45.594Z,97.00
2018-03-04T07:27:13.756Z,97.30
2018-03-04T07:29:41.913Z,96.80
2018-03-04T07:32:10.102Z,96.80
2018-03-04T07:34:38.238Z,96.60
2018-03-04T07:37:06.397Z,96.60
2018-03-04T07:39:34.534Z,96.60
2018-03-04T07:42:02.694Z,96.60
2018-03-04T07:44:30.821Z,96.40
2018-03-04T07:46:58.980Z,96.40
2018-03-04T07:49:27.122Z,96.20
2018-03-04T07:51:55.290Z,95.90
2018-03-04T07:54:23.439Z,95.60
2018-03-04T07:56:51.636Z,95.60
2018-03-04T07:59:19.811Z,95.30
2018-03-04T08:01:47.961Z,95.20
2018-03-04T08:04:16.123Z,95.10
2018-03-04T08:06:44.256Z,94.90
2018-03-04T08:09:12.435Z,95.00
2018-03-04T08:11:40.576Z,94.80
2018-03-04T08:14:08.729Z,94.80
2018-03-04T08:16:36.866Z,95.00
2018-03-04T08:19:05.025Z,94.30
2018-03-04T08:21:33.173Z,93.90
2018-03-04T08:24:01.373Z,93.30
2018-03-04T08:26:41.379Z,92.80
2018-03-04T08:29:09.534Z,91.90
2018-03-04T08:31:38.432Z,91.50
2018-03-04T08:34:06.602Z,91.60
2018-03-04T08:36:35.508Z,90.90
2018-03-04T08:39:03.666Z,90.80
2018-03-04T08:41:32.570Z,90.70
2018-03-04T08:44:00.741Z,90.80
2018-03-04T08:46:28.879Z,90.80
2018-03-04T08:48:57.042Z,91.00
2018-03-04T08:51:25.181Z,90.70
2018-03-04T08:53:53.405Z,90.80
2018-03-04T08:56:31.431Z,91.20
2018-03-04T08:58:59.601Z,91.40
2018-03-04T09:01:28.563Z,91.00
2018-03-04T09:03:56.735Z,90.90
2018-03-04T09:06:25.085Z,90.90
2018-03-04T09:08:53.264Z,91.10
2018-03-04T09:11:21.400Z,90.50
2018-03-04T09:13:49.561Z,90.10
2018-03-04T09:16:18.479Z,90.20
2018-03-04T09:18:46.650Z,90.20
2018-03-04T09:21:14.793Z,90.30
2018-03-04T09:23:42.949Z,89.70
2018-03-04T09:26:11.086Z,89.30
2018-03-04T09:28:39.326Z,89.90
2018-03-04T09:31:07.467Z,89.50
2018-03-04T09:33:35.647Z,90.00
2018-03-04T09:36:03.789Z,90.00
2018-03-04T09:38:32.040Z,89.30
2018-03-04T09:41:00.185Z,89.20
2018-03-04T09:43:28.342Z,88.50
2018-03-04T09:45:56.627Z,89.00
2018-03-04T09:48:24.828Z,89.50
2018-03-04T09:50:53.001Z,88.70
2018-03-04T09:53:21.231Z,88.20
2018-03-04T09:55:49.366Z,87.80
2018-03-04T09:58:17.529Z,85.50
2018-03-04T10:00:45.675Z,85.20
2018-03-04T10:03:14.664Z,85.00
2018-03-04T10:05:42.804Z,85.00
2018-03-04T10:08:10.969Z,84.40
2018-03-04T10:10:39.285Z,86.10
2018-03-04T10:13:07.454Z,84.80
2018-03-04T10:15:35.628Z,83.40
2018-03-04T10:18:03.811Z,84.40
2018-03-04T10:20:31.966Z,82.90
2018-03-04T10:23:00.156Z,82.40
2018-03-04T10:25:28.315Z,81.60
2018-03-04T10:27:56.557Z,81.40
2018-03-04T10:30:24.725Z,80.40
2018-03-04T10:32:53.844Z,80.10
2018-03-04T10:35:21.993Z,80.10
2018-03-04T10:37:50.133Z,80.50
2018-03-04T10:40:19.084Z,81.10
2018-03-04T10:42:47.229Z,81.20
2018-03-04T10:45:15.439Z,80.80
2018-03-04T10:47:43.618Z,79.10
2018-03-04T10:50:11.867Z,80.00
2018-03-04T10:52:40.030Z,79.90
2018-03-04T10:55:08.200Z,79.50
2018-03-04T10:57:36.356Z,80.60
2018-03-04T11:00:04.539Z,81.10
2018-03-04T11:02:41.390Z,80.00
2018-03-04T11:05:09.559Z,80.20
2018-03-04T11:07:37.707Z,80.60
2018-03-04T11:10:05.931Z,79.90
2018-03-04T11:12:34.067Z,79.00
2018-03-04T11:15:02.290Z,79.30
2018-03-04T11:17:30.425Z,80.60
2018-03-04T11:19:58.589Z,79.40
2018-03-04T11:22:26.724Z,80.20
2018-03-04T11:24:54.884Z,79.70
2018-03-04T11:27:23.054Z,80.10
2018-03-04T11:29:51.184Z,80.50
2018-03-04T11:32:19.320Z,80.60
2018-03-04T11:34:47.489Z,78.70
2018-03-04T11:37:15.612Z,77.90
2018-03-04T11:39:43.774Z,79.40
2018-03-04T11:42:11.908Z,80.10
2018-03-04T11:44:40.066Z,80.90
2018-03-04T11:47:08.202Z,79.50
2018-03-04T11:49:36.364Z,78.80
2018-03-04T11:52:04.485Z,78.10
2018-03-04T11:54:32.694Z,78.10
2018-03-04T11:57:00.841Z,78.60
2018-03-04T11:59:29.005Z,76.80
2018-03-04T12:01:57.140Z,76.40
2018-03-04T12:04:25.298Z,75.90
2018-03-04T12:06:53.434Z,76.20
2018-03-04T12:09:21.606Z,75.80
2018-03-04T12:11:49.745Z,76.60
2018-03-04T12:14:17.909Z,78.20
2018-03-04T12:16:46.056Z,78.70
2018-03-04T12:19:14.235Z,78.60
2018-03-04T12:21:42.419Z,76.50
2018-03-04T12:24:10.601Z,75.00
2018-03-04T12:26:38.775Z,76.20
2018-03-04T12:29:06.941Z,78.10
2018-03-04T12:31:35.167Z,77.50
2018-03-04T12:34:03.267Z,77.20
2018-03-04T12:36:31.414Z,77.70
2018-03-04T12:38:59.599Z,77.40
2018-03-04T12:41:27.780Z,78.50
2018-03-04T12:43:55.923Z,79.10
2018-03-04T12:46:24.850Z,78.90
2018-03-04T12:48:52.987Z,78.80
2018-03-04T12:51:21.911Z,77.60
2018-03-04T12:53:50.077Z,77.60
2018-03-04T12:56:18.247Z,77.40
2018-03-04T12:58:46.408Z,77.50
2018-03-04T13:01:14.708Z,78.00
2018-03-04T13:03:42.824Z,77.90
2018-03-04T13:06:11.037Z,78.80
2018-03-04T13:08:39.177Z,78.90
2018-03-04T13:11:07.338Z,78.50
2018-03-04T13:13:35.465Z,80.00
2018-03-04T13:16:03.652Z,79.50
2018-03-04T13:18:31.790Z,78.50
2018-03-04T13:20:59.953Z,79.90
2018-03-04T13:23:28.084Z,79.60
2018-03-04T13:25:56.251Z,79.80
2018-03-04T13:28:24.383Z,81.00
2018-03-04T13:30:52.571Z,80.40
2018-03-04T13:33:20.702Z,80.30
2018-03-04T13:35:48.854Z,80.10
2018-03-04T13:38:16.991Z,79.40
2018-03-04T13:40:45.160Z,78.80
2018-03-04T13:43:13.295Z,79.20
2018-03-04T13:45:41.456Z,79.10
2018-03-04T13:48:09.613Z,78.60
2018-03-04T13:50:37.765Z,78.70
2018-03-04T13:53:05.917Z,78.00
2018-03-04T13:55:34.813Z,78.70
2018-03-04T13:58:02.976Z,78.80
2018-03-04T14:00:31.873Z,78.70
2018-03-04T14:03:00.031Z,78.70
2018-03-04T14:05:28.929Z,79.50
2018-03-04T14:07:57.110Z,79.30
2018-03-04T14:10:26.006Z,80.30
2018-03-04T14:12:54.260Z,80.20
2018-03-04T14:15:22.405Z,79.80
2018-03-04T14:17:50.571Z,79.70
2018-03-04T14:20:18.704Z,79.40
2018-03-04T14:22:46.858Z,78.60
2018-03-04T14:25:15.047Z,77.40
2018-03-04T14:27:43.197Z,76.90
2018-03-04T14:30:11.343Z,77.40
2018-03-04T14:32:39.501Z,78.70
2018-03-04T14:35:07.638Z,78.90
2018-03-04T14:37:35.809Z,79.00
2018-03-04T14:40:04.718Z,77.40
2018-03-04T14:42:32.927Z,77.30
2018-03-04T14:45:01.103Z,76.70
2018-03-04T14:47:29.250Z,76.60
2018-03-04T14:49:57.406Z,76.20
2018-03-04T14:52:25.561Z,76.10
2018-03-04T14:54:54.190Z,76.50
2018-03-04T14:57:22.327Z,76.10
2018-03-04T14:59:50.494Z,76.10
2018-03-04T15:02:18.638Z,76.40
2018-03-04T15:04:46.814Z,76.40
2018-03-04T15:07:14.951Z,77.00
2018-03-04T15:09:43.162Z,77.20
2018-03-04T15:12:11.304Z,77.10
2018-03-04T15:14:39.474Z,77.30
2018-03-04T15:17:07.618Z,77.10
2018-03-04T15:19:35.775Z,77.20
2018-03-04T15:22:04.690Z,77.70
2018-03-04T15:24:32.836Z,77.30
2018-03-04T15:27:01.747Z,78.80
2018-03-04T15:29:29.920Z,77.80
2018-03-04T15:31:58.878Z,78.30
2018-03-04T15:34:27.076Z,78.50
2018-03-04T15:36:55.224Z,78.00
2018-03-04T15:39:23.384Z,78.60
2018-03-04T15:41:51.562Z,78.80
2018-03-04T15:44:19.736Z,78.90
2018-03-04T15:46:47.885Z,79.00
2018-03-04T15:49:16.145Z,79.00
2018-03-04T15:51:44.368Z,79.40
2018-03-04T15:54:12.520Z,79.50
2018-03-04T15:56:40.704Z,80.00
2018-03-04T15:59:08.845Z,80.20
2018-03-04T16:01:37.080Z,80.30
2018-03-04T16:04:05.217Z,80.60
2018-03-04T16:06:34.250Z,80.80
2018-03-04T16:09:02.488Z,80.70
2018-03-04T16:11:30.651Z,80.80
2018-03-04T16:13:58.797Z,81.10
2018-03-04T16:16:27.098Z,81.60
2018-03-04T16:18:55.237Z,81.90
2018-03-04T16:21:23.411Z,82.20
2018-03-04T16:23:53.037Z,82.70
2018-03-04T16:26:21.231Z,82.70
2018-03-04T16:28:49.390Z,82.90
2018-03-04T16:31:17.583Z,83.20
2018-03-04T16:33:45.896Z,83.30
2018-03-04T16:36:14.850Z,84.90
2018-03-04T16:38:43.005Z,83.90
2018-03-04T16:41:11.381Z,84.10
2018-03-04T16:43:39.571Z,84.30
2018-03-04T16:46:07.773Z,84.50
2018-03-04T16:48:35.915Z,84.40
2018-03-04T16:51:04.231Z,84.60
2018-03-04T16:53:32.421Z,84.80
2018-03-04T16:56:00.634Z,85.10
2018-03-04T16:58:28.930Z,85.20
2018-03-04T17:00:57.270Z,85.10
2018-03-04T17:03:25.624Z,85.30
2018-03-04T17:05:54.352Z,85.60
2018-03-04T17:08:22.623Z,85.60
2018-03-04T17:10:50.921Z,86.00
2018-03-04T17:13:19.149Z,86.00
2018-03-04T17:15:48.660Z,86.30
2018-03-04T17:18:16.860Z,86.40
2018-03-04T17:20:45.076Z,86.50
2018-03-04T17:23:14.213Z,86.50
2018-03-04T17:25:43.203Z,86.80
2018-03-04T17:28:11.404Z,86.50
2018-03-04T17:30:39.662Z,86.90
2018-03-04T17:33:07.847Z,86.70
2018-03-04T17:35:36.588Z,86.70
2018-03-04T17:38:05.610Z,87.20
2018-03-04T17:40:33.774Z,87.10
2018-03-04T17:43:02.080Z,87.40
2018-03-04T17:45:30.229Z,87.50
2018-03-04T17:47:58.677Z,87.70
2018-03-04T17:50:27.926Z,87.90
2018-03-04T17:52:56.114Z,87.90
2018-03-04T17:55:24.382Z,88.20
2018-03-04T17:57:53.257Z,88.10
2018-03-04T18:00:22.173Z,88.60
2018-03-04T18:02:50.436Z,88.50
2018-03-04T18:05:18.572Z,88.80
2018-03-04T18:07:46.740Z,89.10
2018-03-04T18:10:14.882Z,88.80
2018-03-04T18:12:43.040Z,88.70
2018-03-04T18:15:11.182Z,88.30
2018-03-04T18:17:39.370Z,88.40
2018-03-04T18:20:07.536Z,88.40
2018-03-04T18:22:35.761Z,88.70
2018-03-04T18:25:04.014Z,88.60
2018-03-04T18:27:32.195Z,88.80
2018-03-04T18:30:00.356Z,89.20
2018-03-04T18:32:28.510Z,89.40
2018-03-04T18:34:56.690Z,89.80
2018-03-04T18:37:24.874Z,90.00
2018-03-04T18:39:53.076Z,90.00
2018-03-04T18:42:21.436Z,90.10
2018-03-04T18:44:49.614Z,90.10
2018-03-04T18:47:17.771Z,89.90
2018-03-04T18:49:46.052Z,90.00
2018-03-04T18:52:14.398Z,90.00
2018-03-04T18:54:42.820Z,90.00
2018-03-04T18:57:12.286Z,90.00
2018-03-04T18:59:41.198Z,89.80
2018-03-04T19:02:09.793Z,90.00
2018-03-04T19:04:38.946Z,90.00
2018-03-04T19:07:08.546Z,90.00
2018-03-04T19:09:37.571Z,89.90
2018-03-04T19:12:06.463Z,90.00
2018-03-04T19:14:34.734Z,90.10
2018-03-04T19:17:03.065Z,90.20
2018-03-04T19:19:31.257Z,90.30
2018-03-04T19:21:59.450Z,90.30
2018-03-04T19:24:27.602Z,90.20
2018-03-04T19:26:55.744Z,90.10
2018-03-04T19:29:24.172Z,90.20
2018-03-04T19:31:53.135Z,89.70
2018-03-04T19:34:21.293Z,89.70
2018-03-04T19:36:49.481Z,90.00
2018-03-04T19:39:17.728Z,90.00
2018-03-04T19:41:45.919Z,90.20
2018-03-04T19:44:14.111Z,90.30
2018-03-04T19:46:42.293Z,90.40
2018-03-04T19:49:10.448Z,90.50
2018-03-04T19:51:39.666Z,90.70
2018-03-04T19:54:07.850Z,90.80
2018-03-04T19:56:36.166Z,90.80
2018-03-04T19:59:04.464Z,90.90
2018-03-04T20:01:32.802Z,90.80
2018-03-04T20:04:01.710Z,90.80
2018-03-04T20:06:29.911Z,90.70
2018-03-04T20:08:58.086Z,90.50
2018-03-04T20:11:26.257Z,90.40
2018-03-04T20:13:54.439Z,90.20
2018-03-04T20:16:22.604Z,90.20
2018-03-04T20:18:50.823Z,90.10
2018-03-04T20:21:19.107Z,90.10
2018-03-04T20:23:47.254Z,90.10
2018-03-04T20:26:15.436Z,90.00
2018-03-04T20:28:43.574Z,90.00
2018-03-04T20:31:11.748Z,90.00
2018-03-04T20:33:39.946Z,90.20
2018-03-04T20:36:08.121Z,90.00
2018-03-04T20:38:36.691Z,90.10
2018-03-04T20:41:05.186Z,89.80
2018-03-04T20:43:33.363Z,89.40
2018-03-04T20:46:01.546Z,89.50
2018-03-04T20:48:29.906Z,89.70
2018-03-04T20:50:58.562Z,89.30
2018-03-04T20:53:27.063Z,89.20
2018-03-04T20:55:55.701Z,89.20
2018-03-04T20:58:24.116Z,89.10
2018-03-04T21:00:53.117Z,88.60
2018-03-04T21:03:21.502Z,88.60
2018-03-04T21:05:50.076Z,88.30
2018-03-04T21:08:18.510Z,88.10
2018-03-04T21:10:47.163Z,87.70
2018-03-04T21:13:28.443Z,87.60
2018-03-04T21:15:57.744Z,87.60
2018-03-04T21:18:26.131Z,87.50
2018-03-04T21:20:54.620Z,87.30
2018-03-04T21:23:23.773Z,87.20
2018-03-04T21:25:52.510Z,87.00
2018-03-04T21:28:20.732Z,86.80
2018-03-04T21:30:48.880Z,87.10
2018-03-04T21:33:17.091Z,87.20
2018-03-04T21:35:45.261Z,87.50
2018-03-04T21:38:13.423Z,87.70
2018-03-04T21:40:41.581Z,87.90
2018-03-04T21:43:09.747Z,87.90
2018-03-04T21:45:37.883Z,88.10
2018-03-04T21:48:06.037Z,88.20
2018-03-04T21:50:34.193Z,88.40
2018-03-04T21:53:02.350Z,88.30
2018-03-04T21:55:30.490Z,88.10
2018-03-04T21:57:58.664Z,88.00
2018-03-04T22:00:26.821Z,87.90
2018-03-04T22:02:54.987Z,87.90
2018-03-04T22:05:23.157Z,87.80
2018-03-04T22:07:51.330Z,87.80
2018-03-04T22:10:19.477Z,88.40
2018-03-04T22:12:47.666Z,88.30
2018-03-04T22:15:15.803Z,88.60
2018-03-04T22:17:44.044Z,89.10
2018-03-04T22:20:12.256Z,89.10
2018-03-04T22:22:40.445Z,89.50
2018-03-04T22:25:08.586Z,89.30
2018-03-04T22:27:37.514Z,89.20
2018-03-04T22:30:05.646Z,89.70
2018-03-04T22:32:33.810Z,90.00
2018-03-04T22:35:01.951Z,90.10
2018-03-04T22:37:30.114Z,90.20
2018-03-04T22:39:58.249Z,90.30
2018-03-04T22:42:27.179Z,90.50
2018-03-04T22:44:55.313Z,90.40
2018-03-04T22:47:24.247Z,90.70
2018-03-04T22:49:52.381Z,90.60
2018-03-04T22:52:21.317Z,90.80
2018-03-04T22:54:49.455Z,90.80
2018-03-04T22:57:18.375Z,91.00
2018-03-04T22:59:46.516Z,90.90
2018-03-04T23:02:15.437Z,91.00
2018-03-04T23:04:43.572Z,91.10
2018-03-04T23:07:12.499Z,91.10
2018-03-04T23:09:40.654Z,91.00
2018-03-04T23:12:08.824Z,91.20
2018-03-04T23:14:36.966Z,91.10
2018-03-04T23:17:05.125Z,91.10
2018-03-04T23:19:33.285Z,91.20
2018-03-04T23:22:01.421Z,91.20
2018-03-04T23:24:29.585Z,91.20
2018-03-04T23:26:57.722Z,91.20
2018-03-04T23:29:25.883Z,91.40
2018-03-04T23:31:54.018Z,91.30
2018-03-04T23:34:22.188Z,91.50
2018-03-04T23:36:50.322Z,91.70
2018-03-04T23:39:18.487Z,91.70
2018-03-04T23:41:46.628Z,91.70
2018-03-04T23:44:15.409Z,91.60
2018-03-04T23:46:43.552Z,91.60
2018-03-04T23:49:12.478Z,91.40
2018-03-04T23:51:40.622Z,91.50
2018-03-04T23:54:09.549Z,91.40
2018-03-04T23:56:37.683Z,91.40
2018-03-04T23:59:06.609Z,91.40
